createdAt,value
2023-05-12T00:01:17.048Z,10.27
2023-05-12T00:03:47.179Z,15.45
2023-05-12T00:06:17.357Z,13.13
2023-05-12T00:08:47.204Z,11.35
2023-05-12T00:11:16.953Z,14.50
2023-05-12T00:13:46.816Z,12.65
2023-05-12T00:16:19.253Z,9.55
2023-05-12T00:18:49.079Z,13.43
2023-05-12T00:21:18.812Z,11.35
2023-05-12T00:23:48.577Z,11.88
2023-05-12T00:26:19.303Z,9.70
2023-05-12T00:28:49.472Z,9.55
2023-05-12T00:31:19.345Z,10.77
2023-05-12T00:33:49.101Z,12.88
2023-05-12T00:36:18.884Z,12.20
2023-05-12T00:38:48.672Z,8.45
2023-05-12T00:41:18.604Z,11.40
2023-05-12T00:43:48.412Z,11.70
2023-05-12T00:46:19.407Z,9.73
2023-05-12T00:48:49.980Z,13.95
2023-05-12T00:51:19.844Z,10.88
2023-05-12T00:53:51.570Z,8.77
2023-05-12T00:56:22.173Z,9.25
2023-05-12T00:58:51.805Z,8.73
2023-05-12T01:01:21.645Z,11.63
2023-05-12T01:03:51.725Z,8.68
2023-05-12T01:06:47.012Z,11.70
2023-05-12T01:09:17.756Z,8.88
2023-05-12T01:11:47.611Z,9.10
2023-05-12T01:14:17.476Z,11.40
2023-05-12T01:16:55.760Z,9.35
2023-05-12T01:19:52.565Z,9.20
2023-05-12T01:22:22.656Z,9.80
2023-05-12T01:25:01.329Z,11.38
2023-05-12T01:27:32.923Z,10.85
2023-05-12T01:30:05.846Z,11.15
2023-05-12T01:32:36.532Z,9.35
2023-05-12T01:35:06.575Z,8.20
2023-05-12T01:37:36.357Z,10.25
2023-05-12T01:40:06.641Z,10.38
2023-05-12T01:42:36.347Z,8.68
2023-05-12T01:45:06.410Z,14.80
2023-05-12T01:47:36.180Z,11.02
2023-05-12T01:50:06.119Z,8.40
2023-05-12T01:52:35.972Z,9.18
2023-05-12T01:55:05.874Z,9.52
2023-05-12T01:57:35.748Z,10.27
2023-05-12T02:00:05.763Z,10.25
2023-05-12T02:02:36.267Z,9.80
2023-05-12T02:05:06.287Z,11.65
2023-05-12T02:07:36.004Z,14.60
2023-05-12T02:10:06.179Z,12.30
2023-05-12T02:12:36.390Z,11.60
2023-05-12T02:15:06.393Z,13.85
2023-05-12T02:17:36.143Z,10.05
2023-05-12T02:20:06.969Z,11.57
2023-05-12T02:22:36.965Z,9.13
2023-05-12T02:25:07.128Z,10.38
2023-05-12T02:27:37.835Z,8.65
2023-05-12T02:30:08.275Z,10.43
2023-05-12T02:32:38.100Z,10.35
2023-05-12T02:35:08.405Z,11.25
2023-05-12T02:37:38.380Z,10.68
2023-05-12T02:40:09.518Z,7.90
2023-05-12T02:42:40.289Z,9.57
2023-05-12T02:45:10.787Z,13.18
2023-05-12T02:47:40.663Z,8.00
2023-05-12T02:50:11.408Z,8.98
2023-05-12T02:52:41.206Z,10.57
2023-05-12T02:55:11.452Z,20.15
2023-05-12T02:57:41.490Z,11.02
2023-05-12T03:00:12.387Z,14.63
2023-05-12T03:02:42.973Z,9.98
2023-05-12T03:05:12.878Z,8.25
2023-05-12T03:07:42.801Z,9.90
2023-05-12T03:10:13.209Z,8.65
2023-05-12T03:12:43.758Z,10.32
2023-05-12T03:15:14.174Z,10.40
2023-05-12T03:17:44.287Z,11.20
2023-05-12T03:20:14.297Z,12.75
2023-05-12T03:22:44.079Z,11.57
2023-05-12T03:25:14.578Z,8.65
2023-05-12T03:27:44.935Z,8.52
2023-05-12T03:30:15.578Z,9.57
2023-05-12T03:32:47.043Z,9.90
2023-05-12T03:35:17.024Z,10.73
2023-05-12T03:37:46.715Z,8.65
2023-05-12T03:40:20.305Z,10.20
2023-05-12T03:42:50.599Z,15.98
2023-05-12T03:45:20.734Z,6.45
2023-05-12T03:47:50.551Z,6.82
2023-05-12T03:50:20.558Z,12.90
2023-05-12T03:52:50.412Z,7.72
2023-05-12T03:55:20.363Z,9.13
2023-05-12T03:57:51.444Z,8.07
2023-05-12T04:00:21.722Z,16.02
2023-05-12T04:02:52.697Z,7.95
2023-05-12T04:05:22.627Z,7.88
2023-05-12T04:07:52.657Z,7.72
2023-05-12T04:10:22.924Z,8.02
2023-05-12T04:12:52.554Z,8.00
2023-05-12T04:15:22.958Z,8.30
2023-05-12T04:17:52.804Z,12.90
2023-05-12T04:20:22.624Z,7.25
2023-05-12T04:22:53.140Z,8.40
2023-05-12T04:25:23.110Z,7.82
2023-05-12T04:27:52.874Z,8.40
2023-05-12T04:30:22.658Z,7.80
2023-05-12T04:32:52.460Z,8.23
2023-05-12T04:35:22.096Z,8.30
2023-05-12T04:37:51.810Z,8.18
2023-05-12T04:40:22.030Z,10.73
2023-05-12T04:42:51.874Z,6.13
2023-05-12T04:45:22.045Z,7.75
2023-05-12T04:47:51.836Z,6.85
2023-05-12T04:50:21.669Z,8.23
2023-05-12T04:52:51.423Z,7.03
2023-05-12T04:55:24.373Z,9.10
2023-05-12T04:57:54.082Z,8.80
2023-05-12T05:00:23.816Z,8.05
2023-05-12T05:02:53.573Z,10.20
2023-05-12T05:05:23.478Z,9.70
2023-05-12T05:07:53.133Z,11.25
2023-05-12T05:10:22.930Z,11.13
2023-05-12T05:12:52.590Z,8.02
2023-05-12T05:15:22.433Z,12.93
2023-05-12T05:17:52.456Z,6.07
2023-05-12T05:20:27.628Z,7.43
2023-05-12T05:22:58.438Z,10.10
2023-05-12T05:25:29.531Z,11.30
2023-05-12T05:27:59.924Z,8.57
2023-05-12T05:30:29.627Z,9.18
2023-05-12T05:32:59.441Z,7.55
2023-05-12T05:35:29.230Z,8.70
2023-05-12T05:37:59.112Z,11.65
2023-05-12T05:40:30.637Z,11.90
2023-05-12T05:43:05.621Z,9.32
2023-05-12T05:45:35.728Z,14.10
2023-05-12T05:48:05.806Z,18.75
2023-05-12T05:50:35.619Z,27.58
2023-05-12T05:53:05.285Z,27.02
2023-05-12T05:55:35.211Z,18.67
2023-05-12T05:58:04.949Z,11.45
2023-05-12T06:00:37.679Z,9.80
2023-05-12T06:03:07.625Z,8.75
2023-05-12T06:05:37.428Z,15.35
2023-05-12T06:08:08.212Z,11.45
2023-05-12T06:10:38.076Z,8.32
2023-05-12T06:13:08.183Z,10.48
2023-05-12T06:15:38.227Z,9.65
2023-05-12T06:18:07.975Z,16.23
2023-05-12T06:20:37.863Z,9.05
2023-05-12T06:23:07.873Z,7.13
2023-05-12T06:25:37.615Z,10.02
2023-05-12T06:28:07.413Z,7.70
2023-05-12T06:30:37.209Z,5.32
2023-05-12T06:33:07.198Z,7.13
2023-05-12T06:35:37.336Z,6.43
2023-05-12T06:38:07.098Z,4.38
2023-05-12T06:40:36.766Z,8.63
2023-05-12T06:43:06.428Z,8.50
2023-05-12T06:45:36.222Z,4.00
2023-05-12T06:48:07.581Z,6.03
2023-05-12T06:50:37.416Z,5.53
2023-05-12T06:53:08.129Z,4.65
2023-05-12T06:55:37.788Z,2.90
2023-05-12T06:58:07.597Z,2.50
2023-05-12T07:00:37.292Z,3.20
2023-05-12T07:03:07.186Z,7.05
2023-05-12T07:05:37.085Z,3.13
2023-05-12T07:08:07.705Z,3.60
2023-05-12T07:10:37.655Z,3.63
2023-05-12T07:13:07.509Z,5.47
2023-05-12T07:15:38.012Z,8.38
2023-05-12T07:18:07.858Z,7.05
2023-05-12T07:20:37.573Z,7.90
2023-05-12T07:23:07.268Z,6.55
2023-05-12T07:25:37.408Z,8.20
2023-05-12T07:28:07.697Z,7.63
2023-05-12T07:30:37.946Z,6.18
2023-05-12T07:33:08.297Z,6.97
2023-05-12T07:35:37.916Z,7.35
2023-05-12T07:38:08.070Z,7.50
2023-05-12T07:40:37.793Z,12.93
2023-05-12T07:43:11.969Z,8.68
2023-05-12T07:45:41.826Z,14.80
2023-05-12T07:48:13.165Z,15.75
2023-05-12T07:50:43.116Z,11.30
2023-05-12T07:53:12.990Z,14.48
2023-05-12T07:55:43.084Z,10.25
2023-05-12T07:58:14.021Z,10.93
2023-05-12T08:00:43.848Z,12.85
2023-05-12T08:03:13.798Z,11.73
2023-05-12T08:05:43.600Z,16.90
2023-05-12T08:08:18.225Z,9.23
2023-05-12T08:10:47.852Z,9.05
2023-05-12T08:13:17.705Z,5.60
2023-05-12T08:15:49.768Z,7.25
2023-05-12T08:18:19.331Z,8.60
2023-05-12T08:20:50.381Z,4.70
2023-05-12T08:23:20.346Z,8.35
2023-05-12T08:25:50.347Z,5.25
2023-05-12T08:28:20.023Z,4.65
2023-05-12T08:30:50.048Z,7.13
2023-05-12T08:33:19.808Z,4.07
2023-05-12T08:35:49.664Z,6.13
2023-05-12T08:38:19.818Z,8.90
2023-05-12T08:41:28.685Z,4.65
2023-05-12T08:43:58.987Z,2.58
2023-05-12T08:46:28.902Z,3.80
2023-05-12T08:49:01.242Z,3.03
2023-05-12T08:51:34.296Z,4.00
2023-05-12T08:54:07.663Z,7.30
2023-05-12T08:59:13.472Z,5.18
2023-05-12T09:01:44.849Z,3.38
2023-05-12T09:04:15.249Z,6.20
2023-05-12T09:06:46.441Z,5.13
2023-05-12T09:09:18.653Z,4.85
2023-05-12T09:11:50.529Z,5.80
2023-05-12T09:14:26.983Z,4.88
2023-05-12T09:17:04.938Z,4.28
2023-05-12T09:22:04.197Z,5.25
2023-05-12T09:24:41.272Z,5.72
2023-05-12T09:27:11.210Z,7.07
2023-05-12T09:29:59.065Z,5.40
2023-05-12T09:32:37.327Z,5.05
2023-05-12T09:35:09.676Z,5.57
2023-05-12T09:37:40.394Z,5.43
2023-05-12T09:40:13.187Z,5.72
2023-05-12T09:42:45.358Z,6.75
2023-05-12T09:45:19.881Z,5.00
2023-05-12T09:47:49.869Z,11.43
2023-05-12T09:50:20.677Z,5.38
2023-05-12T09:52:52.933Z,6.72
2023-05-12T09:55:25.856Z,3.78
2023-05-12T09:57:56.508Z,4.43
2023-05-12T10:00:38.632Z,9.45
2023-05-12T10:03:19.113Z,4.38
2023-05-12T10:05:59.595Z,4.07
2023-05-12T10:08:57.322Z,7.20
2023-05-12T10:13:57.202Z,8.65
2023-05-12T10:16:29.995Z,6.93
2023-05-12T10:19:00.691Z,6.50
2023-05-12T10:21:30.399Z,9.32
2023-05-12T10:24:01.233Z,12.75
2023-05-12T10:26:31.736Z,10.73
2023-05-12T10:29:01.681Z,13.18
2023-05-12T10:31:32.056Z,7.65
2023-05-12T10:34:03.224Z,7.20
2023-05-12T10:36:33.279Z,7.05
2023-05-12T10:39:09.108Z,9.45
2023-05-12T10:41:39.059Z,11.93
2023-05-12T10:44:08.838Z,15.32
2023-05-12T10:46:39.121Z,18.13
2023-05-12T10:49:14.749Z,13.70
2023-05-12T10:51:52.235Z,7.47
2023-05-12T10:54:27.319Z,14.13
2023-05-12T10:57:02.372Z,13.05
2023-05-12T10:59:33.144Z,6.28
2023-05-12T11:02:18.580Z,6.68
2023-05-12T11:04:55.788Z,5.53
2023-05-12T11:07:32.872Z,8.57
2023-05-12T11:10:08.029Z,8.82
2023-05-12T11:12:38.926Z,7.72
2023-05-12T11:15:09.681Z,9.65
2023-05-12T11:17:43.487Z,6.32
2023-05-12T11:20:24.107Z,6.95
2023-05-12T11:22:54.685Z,8.52
2023-05-12T11:25:24.700Z,6.00
2023-05-12T11:27:54.546Z,6.93
2023-05-12T11:30:24.799Z,7.75
2023-05-12T11:33:05.643Z,9.90
2023-05-12T11:35:35.559Z,12.50
2023-05-12T11:38:05.663Z,10.40
2023-05-12T11:40:35.384Z,7.53
2023-05-12T11:43:12.800Z,9.80
2023-05-12T11:45:42.850Z,11.68
2023-05-12T11:48:15.055Z,17.02
2023-05-12T11:50:51.262Z,21.98
2023-05-12T11:53:21.484Z,16.88
2023-05-12T11:55:53.498Z,11.23
2023-05-12T11:58:28.247Z,14.60
2023-05-12T12:00:59.082Z,431.48
2023-05-12T12:03:28.821Z,284.10
2023-05-12T12:06:06.319Z,221.57
2023-05-12T12:08:36.110Z,234.52
2023-05-12T12:11:06.028Z,213.63
2023-05-12T12:13:35.808Z,263.85
2023-05-12T12:16:06.023Z,255.02
2023-05-12T12:18:35.919Z,163.50
2023-05-12T12:21:05.768Z,97.65
2023-05-12T12:23:47.367Z,88.05
2023-05-12T12:26:23.212Z,84.22
2023-05-12T12:28:52.959Z,49.85
2023-05-12T12:31:22.696Z,50.00
2023-05-12T12:33:53.190Z,63.58
2023-05-12T12:36:23.414Z,75.25
2023-05-12T12:38:53.406Z,89.70
2023-05-12T12:41:23.893Z,66.85
2023-05-12T12:43:54.346Z,58.30
2023-05-12T12:46:24.110Z,48.70
2023-05-12T12:48:53.868Z,42.53
2023-05-12T12:51:24.361Z,38.65
2023-05-12T12:53:54.139Z,26.95
2023-05-12T12:56:25.483Z,19.90
2023-05-12T12:58:55.382Z,24.38
2023-05-12T13:01:25.383Z,29.45
2023-05-12T13:03:55.069Z,32.13
2023-05-12T13:06:25.411Z,34.03
2023-05-12T13:08:55.195Z,35.83
2023-05-12T13:11:24.814Z,48.47
2023-05-12T13:13:54.544Z,42.45
2023-05-12T13:16:24.932Z,44.60
2023-05-12T13:18:54.700Z,34.40
2023-05-12T13:21:24.768Z,33.85
2023-05-12T13:23:54.589Z,30.65
2023-05-12T13:26:24.160Z,27.80
2023-05-12T13:28:53.910Z,26.92
2023-05-12T13:31:23.644Z,19.70
2023-05-12T13:33:53.454Z,17.80
2023-05-12T13:36:23.148Z,22.58
2023-05-12T13:38:52.979Z,21.05
2023-05-12T13:41:22.648Z,17.17
2023-05-12T13:43:52.266Z,15.77
2023-05-12T13:46:22.023Z,10.70
2023-05-12T13:48:53.573Z,11.85
2023-05-12T13:51:23.220Z,13.00
2023-05-12T13:53:52.975Z,12.63
2023-05-12T13:56:23.538Z,14.32
2023-05-12T13:58:53.223Z,16.17
2023-05-12T14:01:23.448Z,11.65
2023-05-12T14:03:53.604Z,16.90
2023-05-12T14:06:23.272Z,14.77
2023-05-12T14:08:53.234Z,16.35
2023-05-12T14:11:23.031Z,18.17
2023-05-12T14:13:52.743Z,11.27
2023-05-12T14:16:22.552Z,12.30
2023-05-12T14:18:52.329Z,16.05
2023-05-12T14:21:22.245Z,20.05
2023-05-12T14:23:52.298Z,13.63
2023-05-12T14:26:23.456Z,14.25
2023-05-12T14:28:53.279Z,16.00
2023-05-12T14:31:23.159Z,15.40
2023-05-12T14:33:54.900Z,14.95
2023-05-12T14:36:24.779Z,14.68
2023-05-12T14:38:54.537Z,16.63
2023-05-12T14:41:26.154Z,14.32
2023-05-12T14:43:55.924Z,17.88
2023-05-12T14:46:27.261Z,10.93
2023-05-12T14:48:57.135Z,14.15
2023-05-12T14:51:27.075Z,14.65
2023-05-12T14:53:56.700Z,12.27
2023-05-12T14:56:27.214Z,15.57
2023-05-12T14:58:56.914Z,14.05
2023-05-12T15:01:26.479Z,15.18
2023-05-12T15:03:56.638Z,13.68
2023-05-12T15:06:26.314Z,12.60
2023-05-12T15:08:56.101Z,15.25
2023-05-12T15:11:25.720Z,9.60
2023-05-12T15:13:55.571Z,12.30
2023-05-12T15:16:28.055Z,10.25
2023-05-12T15:18:57.980Z,13.00
2023-05-12T15:21:27.753Z,11.18
2023-05-12T15:23:57.558Z,9.93
2023-05-12T15:26:33.981Z,10.27
2023-05-12T15:29:04.257Z,15.68
2023-05-12T15:31:34.116Z,10.32
2023-05-12T15:34:03.746Z,10.93
2023-05-12T15:36:33.953Z,13.57
2023-05-12T15:39:05.673Z,10.88
2023-05-12T15:41:35.413Z,12.93
2023-05-12T15:44:05.231Z,11.73
2023-05-12T15:46:35.087Z,13.48
2023-05-12T15:49:04.842Z,11.95
2023-05-12T15:51:35.649Z,13.20
2023-05-12T15:54:08.577Z,9.82
2023-05-12T15:56:39.293Z,13.10
2023-05-12T15:59:09.138Z,6.63
2023-05-12T16:01:39.186Z,8.60
2023-05-12T16:04:09.102Z,10.85
2023-05-12T16:06:38.991Z,11.25
2023-05-12T16:09:08.897Z,10.98
2023-05-12T16:11:38.768Z,13.00
2023-05-12T16:14:09.138Z,7.95
2023-05-12T16:16:39.476Z,16.23
2023-05-12T16:19:09.297Z,11.82
2023-05-12T16:21:39.142Z,18.40
2023-05-12T16:24:09.358Z,9.50
2023-05-12T16:26:39.291Z,11.30
2023-05-12T16:29:09.210Z,16.60
2023-05-12T16:31:39.584Z,12.18
2023-05-12T16:34:09.337Z,10.13
2023-05-12T16:36:39.304Z,9.52
2023-05-12T16:39:10.561Z,13.63
2023-05-12T16:41:40.613Z,9.23
2023-05-12T16:44:10.258Z,9.90
2023-05-12T16:46:41.645Z,11.35
2023-05-12T16:49:11.587Z,12.25
2023-05-12T16:51:41.302Z,12.70
2023-05-12T16:54:11.159Z,14.95
2023-05-12T16:56:40.960Z,9.98
2023-05-12T16:59:10.938Z,12.20
2023-05-12T17:01:41.157Z,12.65
2023-05-12T17:04:13.565Z,13.32
2023-05-12T17:06:43.542Z,13.48
2023-05-12T17:09:13.463Z,11.27
2023-05-12T17:11:43.177Z,14.35
2023-05-12T17:14:14.244Z,12.00
2023-05-12T17:16:44.333Z,17.13
2023-05-12T17:19:15.223Z,14.38
2023-05-12T17:21:44.915Z,16.90
2023-05-12T17:24:14.592Z,13.75
2023-05-12T17:26:44.828Z,21.60
2023-05-12T17:29:14.625Z,12.20
2023-05-12T17:31:44.702Z,11.25
2023-05-12T17:34:14.699Z,10.88
2023-05-12T17:36:44.769Z,10.57
2023-05-12T17:39:17.513Z,11.65
2023-05-12T17:41:47.264Z,13.18
2023-05-12T17:44:16.965Z,12.52
2023-05-12T17:46:46.731Z,12.18
2023-05-12T17:49:16.455Z,15.23
2023-05-12T17:51:46.214Z,10.93
2023-05-12T17:54:16.264Z,10.77
2023-05-12T17:56:46.403Z,9.52
2023-05-12T17:59:16.214Z,13.75
2023-05-12T18:01:45.905Z,15.30
2023-05-12T18:04:15.866Z,16.20
2023-05-12T18:06:45.698Z,16.60
2023-05-12T18:09:15.426Z,14.30
2023-05-12T18:11:45.596Z,9.65
2023-05-12T18:14:15.466Z,15.07
2023-05-12T18:16:45.447Z,10.68
2023-05-12T18:19:15.512Z,8.88
2023-05-12T18:21:45.191Z,13.30
2023-05-12T18:24:14.935Z,9.60
2023-05-12T18:26:44.962Z,11.10
2023-05-12T18:29:14.856Z,7.97
2023-05-12T18:31:45.981Z,9.60
2023-05-12T18:34:15.686Z,9.57
2023-05-12T18:36:45.523Z,10.35
2023-05-12T18:39:16.739Z,13.32
2023-05-12T18:41:46.664Z,14.35
2023-05-12T18:44:16.429Z,12.68
2023-05-12T18:46:49.366Z,13.93
2023-05-12T18:49:19.085Z,14.82
2023-05-12T18:51:49.019Z,14.25
2023-05-12T18:54:18.771Z,12.75
2023-05-12T18:56:49.235Z,13.13
2023-05-12T18:59:19.396Z,15.18
2023-05-12T19:01:49.223Z,14.77
2023-05-12T19:04:19.045Z,22.70
2023-05-12T19:06:48.988Z,13.40
2023-05-12T19:09:19.011Z,14.77
2023-05-12T19:11:48.889Z,14.07
2023-05-12T19:14:19.161Z,11.00
2023-05-12T19:16:48.865Z,11.52
2023-05-12T19:19:19.063Z,13.65
2023-05-12T19:21:49.324Z,14.45
2023-05-12T19:24:19.099Z,21.92
2023-05-12T19:26:48.987Z,12.68
2023-05-12T19:29:18.548Z,19.17
2023-05-12T19:31:48.378Z,14.73
2023-05-12T19:34:18.350Z,14.07
2023-05-12T19:36:48.267Z,14.40
2023-05-12T19:39:18.143Z,11.52
2023-05-12T19:41:47.940Z,14.20
2023-05-12T19:44:17.655Z,14.48
2023-05-12T19:46:50.598Z,14.48
2023-05-12T19:49:20.518Z,14.55
2023-05-12T19:51:50.780Z,15.73
2023-05-12T19:54:20.637Z,18.52
2023-05-12T19:56:50.439Z,13.35
2023-05-12T19:59:21.098Z,13.40
2023-05-12T20:01:51.148Z,10.30
2023-05-12T20:04:20.923Z,11.13
2023-05-12T20:06:50.806Z,9.98
2023-05-12T20:09:22.361Z,10.65
2023-05-12T20:11:52.230Z,12.75
2023-05-12T20:14:22.017Z,12.85
2023-05-12T20:16:52.179Z,11.80
2023-05-12T20:19:21.980Z,26.15
2023-05-12T20:21:51.593Z,11.95
2023-05-12T20:24:21.346Z,13.82
2023-05-12T20:26:51.206Z,12.65
2023-05-12T20:29:24.052Z,11.50
2023-05-12T20:31:54.625Z,11.60
2023-05-12T20:34:24.636Z,13.50
2023-05-12T20:36:54.285Z,11.70
2023-05-12T20:39:24.061Z,13.88
2023-05-12T20:41:53.764Z,10.95
2023-05-12T20:44:24.161Z,13.75
2023-05-12T20:46:54.185Z,16.98
2023-05-12T20:49:24.171Z,18.25
2023-05-12T20:51:53.925Z,13.70
2023-05-12T20:54:26.561Z,12.93
2023-05-12T20:56:56.216Z,22.20
2023-05-12T20:59:26.905Z,10.52
2023-05-12T21:01:56.670Z,12.45
2023-05-12T21:04:26.397Z,16.30
2023-05-12T21:06:56.132Z,14.43
2023-05-12T21:09:25.998Z,15.40
2023-05-12T21:11:55.728Z,13.27
2023-05-12T21:14:25.533Z,18.23
2023-05-12T21:16:55.239Z,15.95
2023-05-12T21:19:24.978Z,13.30
2023-05-12T21:21:54.593Z,13.20
2023-05-12T21:24:24.229Z,10.18
2023-05-12T21:26:53.986Z,16.98
2023-05-12T21:29:23.661Z,10.95
2023-05-12T21:31:54.016Z,10.02
2023-05-12T21:34:23.615Z,10.98
2023-05-12T21:36:53.472Z,12.77
2023-05-12T21:39:23.541Z,16.02
2023-05-12T21:41:53.083Z,9.82
2023-05-12T21:44:22.958Z,8.35
2023-05-12T21:46:52.976Z,8.85
2023-05-12T21:49:22.822Z,14.32
2023-05-12T21:51:52.704Z,7.78
2023-05-12T21:54:22.517Z,14.27
2023-05-12T21:56:52.517Z,10.20
2023-05-12T21:59:22.498Z,8.18
2023-05-12T22:01:52.306Z,9.20
2023-05-12T22:04:22.197Z,6.47
2023-05-12T22:06:52.469Z,8.73
2023-05-12T22:09:22.389Z,6.25
2023-05-12T22:11:52.296Z,7.93
2023-05-12T22:14:22.692Z,9.65
2023-05-12T22:16:52.583Z,9.73
2023-05-12T22:19:22.398Z,9.70
2023-05-12T22:21:52.559Z,11.52
2023-05-12T22:24:22.182Z,10.98
2023-05-12T22:26:51.670Z,18.92
2023-05-12T22:29:21.568Z,10.98
2023-05-12T22:31:51.382Z,10.50
2023-05-12T22:34:21.191Z,12.88
2023-05-12T22:36:50.851Z,13.05
2023-05-12T22:39:21.470Z,8.20
2023-05-12T22:41:51.101Z,10.35
2023-05-12T22:44:20.789Z,13.85
2023-05-12T22:46:50.492Z,8.52
2023-05-12T22:49:20.152Z,9.45
2023-05-12T22:51:49.832Z,10.25
2023-05-12T22:54:19.603Z,9.63
2023-05-12T22:56:49.152Z,8.45
2023-05-12T22:59:19.037Z,11.70
2023-05-12T23:01:48.650Z,11.02
2023-05-12T23:04:18.352Z,12.65
2023-05-12T23:06:47.995Z,11.50
2023-05-12T23:09:17.775Z,14.48
2023-05-12T23:11:47.580Z,14.23
2023-05-12T23:14:17.513Z,16.42
2023-05-12T23:16:49.868Z,41.28
2023-05-12T23:19:19.564Z,12.77
2023-05-12T23:21:49.209Z,29.33
2023-05-12T23:24:18.889Z,21.77
2023-05-12T23:26:48.643Z,26.73
2023-05-12T23:29:18.875Z,19.20
2023-05-12T23:31:48.662Z,24.48
2023-05-12T23:34:18.524Z,14.05
2023-05-12T23:36:48.365Z,10.88
2023-05-12T23:39:18.320Z,19.15
2023-05-12T23:41:48.041Z,16.25
2023-05-12T23:44:17.824Z,8.10
2023-05-12T23:46:48.334Z,14.98
2023-05-12T23:49:18.249Z,19.15
2023-05-12T23:51:48.092Z,11.07
2023-05-12T23:54:17.854Z,9.23
2023-05-12T23:56:47.793Z,8.55
2023-05-12T23:59:17.683Z,17.73
